TimeAKST,TemperatureF,Dew PointF,Humidity,Sea Level PressureIn,VisibilityMPH,Wind Direction,Wind SpeedMPH,Gust SpeedMPH,PrecipitationIn,Events,Conditions,WindDirDegrees,DateUTC
12:16 AM,-18.4,-23.8,76,-9999,7.0,North,9.2,-,N/A,,Overcast,360,2014-02-13 09:16:00
12:36 AM,-18.4,-23.8,76,-9999,10.0,North,9.2,-,N/A,,Mostly Cloudy,360,2014-02-13 09:36:00
12:56 AM,-18.4,-23.8,76,-9999,10.0,North,8.1,-,N/A,,Partly Cloudy,360,2014-02-13 09:56:00
1:16 AM,-18.4,-23.8,76,-9999,10.0,North,10.4,-,N/A,,Scattered Clouds,350,2014-02-13 10:16:00
1:36 AM,-18.4,-23.8,76,-9999,10.0,North,8.1,-,N/A,,Overcast,360,2014-02-13 10:36:00
1:56 AM,-18.4,-23.8,76,-9999,10.0,North,8.1,-,N/A,,Overcast,360,2014-02-13 10:56:00
2:16 AM,-18.4,-23.8,76,-9999,10.0,North,8.1,-,N/A,,Overcast,350,2014-02-13 11:16:00
2:36 AM,-18.4,-23.8,76,-9999,10.0,North,10.4,-,N/A,,Overcast,360,2014-02-13 11:36:00
2:56 AM,-18.4,-23.8,76,-9999,10.0,North,10.4,16.1,N/A,,Overcast,360,2014-02-13 11:56:00
3:16 AM,-18.4,-23.8,76,-9999,10.0,North,9.2,-,N/A,,Overcast,360,2014-02-13 12:16:00
3:36 AM,-18.4,-23.8,76,-9999,10.0,North,8.1,-,N/A,,Overcast,360,2014-02-13 12:36:00
3:56 AM,-18.4,-23.8,76,-9999,10.0,North,5.8,-,N/A,,Overcast,10,2014-02-13 12:56:00
4:16 AM,-18.4,-23.8,76,-9999,10.0,North,8.1,-,N/A,,Overcast,360,2014-02-13 13:16:00
4:36 AM,-18.4,-23.8,76,-9999,10.0,North,9.2,-,N/A,,Overcast,360,2014-02-13 13:36:00
4:56 AM,-18.4,-23.8,76,-9999,10.0,North,6.9,-,N/A,,Overcast,10,2014-02-13 13:56:00
5:16 AM,-18.4,-23.8,76,-9999,10.0,North,6.9,-,N/A,,Overcast,360,2014-02-13 14:16:00
5:36 AM,-18.4,-23.8,76,-9999,10.0,North,8.1,-,N/A,,Overcast,10,2014-02-13 14:36:00
5:56 AM,-18.4,-23.8,76,-9999,2.5,North,8.1,-,N/A,,Overcast,360,2014-02-13 14:56:00
6:16 AM,-18.4,-23.8,76,-9999,2.5,North,9.2,-,N/A,,Overcast,360,2014-02-13 15:16:00
6:36 AM,-20.2,-25.6,76,-9999,3.0,North,12.7,-,N/A,,Overcast,360,2014-02-13 15:36:00
6:56 AM,-20.2,-25.6,76,-9999,7.0,North,9.2,-,N/A,,Overcast,360,2014-02-13 15:56:00
7:16 AM,-20.2,-25.6,76,-9999,10.0,North,8.1,-,N/A,,Scattered Clouds,360,2014-02-13 16:16:00
7:36 AM,-20.2,-25.6,76,-9999,10.0,North,6.9,-,N/A,,Clear,10,2014-02-13 16:36:00
7:56 AM,-20.2,-27.4,69,-9999,10.0,North,5.8,-,N/A,,Clear,350,2014-02-13 16:56:00
8:16 AM,-20.2,-25.6,76,-9999,10.0,NNW,4.6,-,N/A,,Clear,330,2014-02-13 17:16:00
8:36 AM,-20.2,-25.6,76,-9999,10.0,Calm,Calm,-,N/A,,Clear,0,2014-02-13 17:36:00
8:56 AM,-22.0,-27.4,76,-9999,10.0,Calm,Calm,-,N/A,,Clear,0,2014-02-13 17:56:00
9:16 AM,-22.0,-27.4,76,-9999,10.0,Calm,Calm,-,N/A,,Clear,0,2014-02-13 18:16:00
9:36 AM,-23.8,-27.4,83,-9999,10.0,Calm,Calm,-,N/A,,Clear,0,2014-02-13 18:36:00
9:56 AM,-23.8,-27.4,83,-9999,10.0,Calm,Calm,-,N/A,,Clear,0,2014-02-13 18:56:00
10:36 AM,-22.0,-25.6,83,-9999,10.0,NNW,3.5,-,N/A,,Clear,340,2014-02-13 19:36:00
10:56 AM,-20.2,-25.6,76,-9999,10.0,North,6.9,-,N/A,,Partly Cloudy,10,2014-02-13 19:56:00
11:16 AM,-18.4,-23.8,76,-9999,10.0,North,4.6,-,N/A,,Partly Cloudy,350,2014-02-13 20:16:00
11:36 AM,-18.4,-23.8,76,-9999,10.0,North,3.5,-,N/A,,Clear,360,2014-02-13 20:36:00
11:56 AM,-16.6,-23.8,70,-9999,10.0,North,3.5,-,N/A,,Clear,360,2014-02-13 20:56:00
12:16 PM,-16.6,-23.8,70,-9999,10.0,North,5.8,-,N/A,,Mostly Cloudy,10,2014-02-13 21:16:00
12:36 PM,-16.6,-23.8,70,-9999,10.0,NNE,8.1,-,N/A,,Mostly Cloudy,20,2014-02-13 21:36:00
12:56 PM,-16.6,-22.0,76,-9999,10.0,North,5.8,-,N/A,,Mostly Cloudy,10,2014-02-13 21:56:00
1:16 PM,-14.8,-22.0,70,-9999,10.0,North,4.6,-,N/A,,Mostly Cloudy,10,2014-02-13 22:16:00
1:36 PM,-14.8,-20.2,77,-9999,10.0,NNE,3.5,-,N/A,,Scattered Clouds,20,2014-02-13 22:36:00
1:56 PM,-13.0,-20.2,70,-9999,10.0,North,3.5,-,N/A,,Mostly Cloudy,360,2014-02-13 22:56:00
2:16 PM,-13.0,-20.2,70,-9999,5.0,Calm,Calm,-,N/A,,Overcast,0,2014-02-13 23:16:00
2:36 PM,-11.2,-18.4,70,-9999,2.5,NNE,3.5,-,N/A,,Overcast,20,2014-02-13 23:36:00
2:56 PM,-13.0,-20.2,70,-9999,8.0,North,3.5,-,N/A,,Mostly Cloudy,10,2014-02-13 23:56:00
3:16 PM,-11.2,-18.4,70,29.03,10.0,North,4.6,-,N/A,,Clear,10,2014-02-14 00:16:00
3:36 PM,-9.4,-18.4,65,29.04,10.0,NNE,4.6,-,N/A,,Clear,30,2014-02-14 00:36:00
3:56 PM,-9.4,-18.4,65,29.03,10.0,North,3.5,-,N/A,,Clear,10,2014-02-14 00:56:00
4:16 PM,-11.2,-20.2,64,29.03,10.0,NNE,6.9,-,N/A,,Clear,30,2014-02-14 01:16:00
4:36 PM,-14.8,-23.8,64,29.03,10.0,Calm,Calm,-,N/A,,Clear,0,2014-02-14 01:36:00
4:56 PM,-16.6,-23.8,70,29.03,10.0,Calm,Calm,-,N/A,,Clear,0,2014-02-14 01:56:00
5:16 PM,-18.4,-23.8,76,29.05,10.0,Calm,Calm,-,N/A,,Clear,0,2014-02-14 02:16:00
5:36 PM,-18.4,-23.8,76,29.06,10.0,Calm,Calm,-,N/A,,Clear,0,2014-02-14 02:36:00
5:56 PM,-18.4,-25.6,70,29.07,10.0,Calm,Calm,-,N/A,,Clear,0,2014-02-14 02:56:00
6:16 PM,-20.2,-25.6,76,29.07,10.0,Calm,Calm,-,N/A,,Clear,0,2014-02-14 03:16:00
6:36 PM,-20.2,-25.6,76,29.08,10.0,Calm,Calm,-,N/A,,Clear,0,2014-02-14 03:36:00
6:56 PM,-22.0,-27.4,76,29.09,10.0,Calm,Calm,-,N/A,,Clear,0,2014-02-14 03:56:00
7:16 PM,-23.8,-27.4,83,-9999,10.0,Calm,Calm,-,N/A,,Clear,0,2014-02-14 04:16:00
7:36 PM,-23.8,-29.2,76,-9999,10.0,Calm,Calm,-,N/A,,Clear,0,2014-02-14 04:36:00
7:56 PM,-23.8,-29.2,76,-9999,10.0,Calm,Calm,-,N/A,,Clear,0,2014-02-14 04:56:00
8:16 PM,-25.6,-29.2,83,-9999,10.0,Calm,Calm,-,N/A,,Clear,0,2014-02-14 05:16:00
8:36 PM,-25.6,-29.2,83,-9999,10.0,Calm,Calm,-,N/A,,Clear,0,2014-02-14 05:36:00
8:56 PM,-23.8,-27.4,83,-9999,10.0,Calm,Calm,-,N/A,,Clear,0,2014-02-14 05:56:00
9:16 PM,-23.8,-27.4,83,-9999,10.0,Calm,Calm,-,N/A,,Clear,0,2014-02-14 06:16:00
9:36 PM,-25.6,-29.2,83,-9999,10.0,Calm,Calm,-,N/A,,Clear,0,2014-02-14 06:36:00
9:56 PM,-25.6,-31.0,76,-9999,10.0,Calm,Calm,-,N/A,,Clear,0,2014-02-14 06:56:00
10:16 PM,-25.6,-31.0,76,-9999,10.0,Calm,Calm,-,N/A,,Clear,0,2014-02-14 07:16:00
10:36 PM,-25.6,-32.8,69,-9999,10.0,Calm,Calm,-,N/A,,Clear,0,2014-02-14 07:36:00
10:56 PM,-27.4,-32.8,75,-9999,10.0,Calm,Calm,-,N/A,,Clear,0,2014-02-14 07:56:00
11:16 PM,-27.4,-32.8,75,-9999,10.0,Calm,Calm,-,N/A,,Clear,0,2014-02-14 08:16:00
11:36 PM,-29.2,-34.6,75,-9999,10.0,Calm,Calm,-,N/A,,Clear,0,2014-02-14 08:36:00
11:56 PM,-29.2,-34.6,75,-9999,7.0,Calm,Calm,-,N/A,,Clear,0,2014-02-14 08:56:00